Terminal Aerodrome Forecast
Issued by NWS Detroit/Pontiac, MI

Home | Current Version | Previous Version | Text Only | Print | Product List | Glossary On
Versions: 1 2 3 4 5 6 7 8 9 10 11 12 13 14
000
FTUS43 KDTX 192320
TAFFNT
TAF
KFNT 192320Z 2000/2024 11012G20KT P6SM BKN040 OVC060
     FM200200 11014G20KT 3SM RA BKN014 OVC040
     FM200500 14014G20KT 2SM -RA BKN006 OVC018
     FM201000 20015G24KT P6SM BKN012 OVC030
     FM201600 22015G25KT P6SM SHRA BKN022 OVC040
     FM202000 26018G27KT P6SM BKN018 OVC040=

USA.gov is the U.S. government's official web portal to all federal, state and local government web resources and services.